Terminal Aerodrome Forecast
Issued by NWS Mobile, AL

Home | Current Version | Previous Version | Text Only | Print | Product List | Glossary On
Versions: 1 2 3 4 5 6 7 8 9 10 11 12 13 14 15 16 17 18 19 20 21 22 23 24
000
FTUS44 KMOB 130500 RRA
TAFMOB
TAF
KMOB 130546Z 1306/1406 VRB03KT P6SM SCT050
     FM131600 13006KT P6SM SCT035
     FM131800 15005KT P6SM VCTS SCT030CB
     FM140200 VRB03KT P6SM SKC=

USA.gov is the U.S. government's official web portal to all federal, state and local government web resources and services.